sensor_id;sensor_type;location;lat;lon;timestamp;pressure;altitude;pressure_sealevel;temperature;humidity
34921;BME280;21128;50.016;20.002;2023-03-01T00:01:42;100132.52;;;-2.14;78.54
34921;BME280;21128;50.016;20.002;2023-03-01T00:04:09;100128.33;;;-2.18;78.69
34921;BME280;21128;50.016;20.002;2023-03-01T00:06:36;100133.48;;;-2.19;78.28
34921;BME280;21128;50.016;20.002;2023-03-01T00:09:04;100127.48;;;-2.18;79.33
34921;BME280;21128;50.016;20.002;2023-03-01T00:11:32;100124.91;;;-2.20;79.48
34921;BME280;21128;50.016;20.002;2023-03-01T00:14:01;100118.95;;;-2.22;79.56
34921;BME280;21128;50.016;20.002;2023-03-01T00:16:40;100129.33;;;-2.25;79.42
34921;BME280;21128;50.016;20.002;2023-03-01T00:19:12;100122.53;;;-2.29;79.51
34921;BME280;21128;50.016;20.002;2023-03-01T00:21:40;100121.75;;;-2.33;79.73
34921;BME280;21128;50.016;20.002;2023-03-01T00:24:07;100115.76;;;-2.33;79.77
34921;BME280;21128;50.016;20.002;2023-03-01T00:26:34;100117.45;;;-2.32;79.66
34921;BME280;21128;50.016;20.002;2023-03-01T00:29:01;100119.17;;;-2.33;79.90
34921;BME280;21128;50.016;20.002;2023-03-01T00:31:31;100120.02;;;-2.32;80.28
34921;BME280;21128;50.016;20.002;2023-03-01T00:34:02;100113.22;;;-2.36;80.54
34921;BME280;21128;50.016;20.002;2023-03-01T00:36:33;100108.19;;;-2.41;80.94
34921;BME280;21128;50.016;20.002;2023-03-01T00:39:02;100106.53;;;-2.45;81.08
34921;BME280;21128;50.016;20.002;2023-03-01T00:41:29;100118.59;;;-2.47;81.28
34921;BME280;21128;50.016;20.002;2023-03-01T00:43:57;100123.73;;;-2.47;81.63
34921;BME280;21128;50.016;20.002;2023-03-01T00:46:26;100114.25;;;-2.43;81.64
34921;BME280;21128;50.016;20.002;2023-03-01T00:48:53;100110.79;;;-2.42;81.47
34921;BME280;21128;50.016;20.002;2023-03-01T00:51:23;100097.92;;;-2.42;81.48
34921;BME280;21128;50.016;20.002;2023-03-01T00:53:52;100104.77;;;-2.41;81.78
34921;BME280;21128;50.016;20.002;2023-03-01T00:56:20;100091.01;;;-2.40;81.84
34921;BME280;21128;50.016;20.002;2023-03-01T00:58:47;100095.34;;;-2.42;82.03
34921;BME280;21128;50.016;20.002;2023-03-01T01:01:21;100095.34;;;-2.42;82.47
34921;BME280;21128;50.016;20.002;2023-03-01T01:03:56;100087.55;;;-2.39;82.41
34921;BME280;21128;50.016;20.002;2023-03-01T01:06:27;100090.09;;;-2.38;82.55
34921;BME280;21128;50.016;20.002;2023-03-01T01:08:55;100086.62;;;-2.35;82.36
34921;BME280;21128;50.016;20.002;2023-03-01T01:11:25;100079.72;;;-2.33;82.87
34921;BME280;21128;50.016;20.002;2023-03-01T01:13:52;100073.69;;;-2.32;82.86
34921;BME280;21128;50.016;20.002;2023-03-01T01:16:22;100074.48;;;-2.30;83.23
34921;BME280;21128;50.016;20.002;2023-03-01T01:18:49;100077.87;;;-2.28;83.14
34921;BME280;21128;50.016;20.002;2023-03-01T01:21:18;100081.29;;;-2.26;83.38
34921;BME280;21128;50.016;20.002;2023-03-01T01:23:46;100075.26;;;-2.25;83.17
34921;BME280;21128;50.016;20.002;2023-03-01T01:26:19;100075.22;;;-2.23;83.11
34921;BME280;21128;50.016;20.002;2023-03-01T01:28:47;100071.72;;;-2.21;83.12
34921;BME280;21128;50.016;20.002;2023-03-01T01:31:14;100066.65;;;-2.24;82.83
34921;BME280;21128;50.016;20.002;2023-03-01T01:33:41;100064.12;;;-2.27;82.67
34921;BME280;21128;50.016;20.002;2023-03-01T01:36:09;100062.42;;;-2.28;82.46
34921;BME280;21128;50.016;20.002;2023-03-01T01:38:37;100071.19;;;-2.35;82.24
34921;BME280;21128;50.016;20.002;2023-03-01T01:41:05;100069.57;;;-2.41;82.63
34921;BME280;21128;50.016;20.002;2023-03-01T01:43:36;100071.45;;;-2.49;82.43
34921;BME280;21128;50.016;20.002;2023-03-01T01:46:10;100057.00;;;-2.56;82.55
34921;BME280;21128;50.016;20.002;2023-03-01T01:48:52;100060.53;;;-2.62;82.66
34921;BME280;21128;50.016;20.002;2023-03-01T01:51:24;100049.50;;;-2.67;83.32
34921;BME280;21128;50.016;20.002;2023-03-01T01:53:56;100040.28;;;-2.78;83.40
34921;BME280;21128;50.016;20.002;2023-03-01T01:56:28;100054.20;;;-2.89;83.78
34921;BME280;21128;50.016;20.002;2023-03-01T01:58:56;100059.45;;;-2.95;84.15
34921;BME280;21128;50.016;20.002;2023-03-01T02:01:25;100054.44;;;-3.01;84.46
34921;BME280;21128;50.016;20.002;2023-03-01T02:03:52;100063.09;;;-3.06;85.21
34921;BME280;21128;50.016;20.002;2023-03-01T02:07:24;100065.77;;;-3.11;85.27
34921;BME280;21128;50.016;20.002;2023-03-01T02:09:20;100058.05;;;-3.11;84.99
34921;BME280;21128;50.016;20.002;2023-03-01T02:11:49;100049.46;;;-3.10;85.83
34921;BME280;21128;50.016;20.002;2023-03-01T02:14:17;100052.03;;;-3.10;85.70
34921;BME280;21128;50.016;20.002;2023-03-01T02:16:44;100051.13;;;-3.07;85.94
34921;BME280;21128;50.016;20.002;2023-03-01T02:19:20;100055.38;;;-3.06;86.26
34921;BME280;21128;50.016;20.002;2023-03-01T02:21:56;100057.98;;;-3.08;85.67
34921;BME280;21128;50.016;20.002;2023-03-01T02:24:35;100052.84;;;-3.08;85.97
34921;BME280;21128;50.016;20.002;2023-03-01T02:27:05;100068.23;;;-3.06;86.16
34921;BME280;21128;50.016;20.002;2023-03-01T02:29:32;100065.67;;;-3.06;86.40
34921;BME280;21128;50.016;20.002;2023-03-01T02:32:01;100063.13;;;-3.08;86.00
34921;BME280;21128;50.016;20.002;2023-03-01T02:34:31;100067.42;;;-3.08;85.92
34921;BME280;21128;50.016;20.002;2023-03-01T02:37:05;100078.56;;;-3.08;86.67
34921;BME280;21128;50.016;20.002;2023-03-01T02:39:40;100075.14;;;-3.08;86.87
34921;BME280;21128;50.016;20.002;2023-03-01T02:42:23;100069.19;;;-3.10;86.87
34921;BME280;21128;50.016;20.002;2023-03-01T02:44:52;100071.76;;;-3.12;86.45
34921;BME280;21128;50.016;20.002;2023-03-01T02:47:20;100071.82;;;-3.15;86.50
34921;BME280;21128;50.016;20.002;2023-03-01T02:49:47;100066.71;;;-3.17;87.06
34921;BME280;21128;50.016;20.002;2023-03-01T02:55:11;100066.74;;;-3.18;87.45
34921;BME280;21128;50.016;20.002;2023-03-01T02:57:42;100070.19;;;-3.21;86.62
34921;BME280;21128;50.016;20.002;2023-03-01T03:00:15;100071.98;;;-3.24;87.18
34921;BME280;21128;50.016;20.002;2023-03-01T03:02:52;100063.48;;;-3.28;86.92
34921;BME280;21128;50.016;20.002;2023-03-01T03:05:23;100065.30;;;-3.34;87.41
34921;BME280;21128;50.016;20.002;2023-03-01T03:07:50;100057.63;;;-3.37;87.79
34921;BME280;21128;50.016;20.002;2023-03-01T03:10:21;100062.80;;;-3.39;87.38
34921;BME280;21128;50.016;20.002;2023-03-01T03:12:56;100061.10;;;-3.40;88.31
34921;BME280;21128;50.016;20.002;2023-03-01T03:15:25;100060.20;;;-3.36;87.76
34921;BME280;21128;50.016;20.002;2023-03-01T03:17:53;100061.86;;;-3.33;88.27
34921;BME280;21128;50.016;20.002;2023-03-01T03:20:22;100060.10;;;-3.31;88.27
34921;BME280;21128;50.016;20.002;2023-03-01T03:22:52;100048.97;;;-3.32;88.68
34921;BME280;21128;50.016;20.002;2023-03-01T03:25:21;100048.97;;;-3.32;88.67
34921;BME280;21128;50.016;20.002;2023-03-01T03:27:49;100043.83;;;-3.32;89.00
34921;BME280;21128;50.016;20.002;2023-03-01T03:30:18;100044.67;;;-3.31;88.62
34921;BME280;21128;50.016;20.002;2023-03-01T03:32:47;100045.49;;;-3.28;89.06
34921;BME280;21128;50.016;20.002;2023-03-01T03:35:29;100055.77;;;-3.28;88.74
34921;BME280;21128;50.016;20.002;2023-03-01T03:37:58;100047.19;;;-3.28;88.68
34921;BME280;21128;50.016;20.002;2023-03-01T03:40:35;100052.36;;;-3.30;88.76
34921;BME280;21128;50.016;20.002;2023-03-01T03:43:14;100044.71;;;-3.33;89.22
34921;BME280;21128;50.016;20.002;2023-03-01T03:45:44;100033.55;;;-3.32;89.11
34921;BME280;21128;50.016;20.002;2023-03-01T03:48:11;100043.02;;;-3.34;89.40
34921;BME280;21128;50.016;20.002;2023-03-01T03:50:39;100040.58;;;-3.42;88.37
34921;BME280;21128;50.016;20.002;2023-03-01T03:53:09;100046.63;;;-3.46;89.27
34921;BME280;21128;50.016;20.002;2023-03-01T03:55:37;100047.59;;;-3.51;88.97
34921;BME280;21128;50.016;20.002;2023-03-01T03:58:08;100048.47;;;-3.54;89.43
34921;BME280;21128;50.016;20.002;2023-03-01T04:00:37;100051.06;;;-3.55;89.87
34921;BME280;21128;50.016;20.002;2023-03-01T04:03:06;100057.08;;;-3.56;90.13
34921;BME280;21128;50.016;20.002;2023-03-01T04:05:35;100057.08;;;-3.56;90.01
34921;BME280;21128;50.016;20.002;2023-03-01T04:08:02;100059.65;;;-3.56;89.46
34921;BME280;21128;50.016;20.002;2023-03-01T04:10:32;100053.72;;;-3.60;89.38
34921;BME280;21128;50.016;20.002;2023-03-01T04:12:59;100047.80;;;-3.65;89.86
34921;BME280;21128;50.016;20.002;2023-03-01T04:15:27;100051.27;;;-3.67;89.66
34921;BME280;21128;50.016;20.002;2023-03-01T04:17:55;100060.73;;;-3.71;89.44
34921;BME280;21128;50.016;20.002;2023-03-01T04:20:28;100053.05;;;-3.73;90.79
34921;BME280;21128;50.016;20.002;2023-03-01T04:23:03;100050.48;;;-3.73;90.04
34921;BME280;21128;50.016;20.002;2023-03-01T04:28:09;100051.30;;;-3.71;90.65
34921;BME280;21128;50.016;20.002;2023-03-01T04:30:37;100049.61;;;-3.72;90.46
34921;BME280;21128;50.016;20.002;2023-03-01T04:33:06;100053.90;;;-3.72;91.03
34921;BME280;21128;50.016;20.002;2023-03-01T04:35:34;100056.44;;;-3.71;91.57
34921;BME280;21128;50.016;20.002;2023-03-01T04:38:02;100047.89;;;-3.70;90.91
34921;BME280;21128;50.016;20.002;2023-03-01T04:40:30;100052.12;;;-3.67;91.03
34921;BME280;21128;50.016;20.002;2023-03-01T04:42:57;100049.58;;;-3.69;90.77
34921;BME280;21128;50.016;20.002;2023-03-01T04:45:24;100050.40;;;-3.66;90.84
34921;BME280;21128;50.016;20.002;2023-03-01T04:47:51;100047.02;;;-3.69;91.01
34921;BME280;21128;50.016;20.002;2023-03-01T04:50:21;100042.72;;;-3.68;90.69
34921;BME280;21128;50.016;20.002;2023-03-01T04:52:50;100041.84;;;-3.67;91.94
34921;BME280;21128;50.016;20.002;2023-03-01T04:55:17;100034.95;;;-3.65;92.89
34921;BME280;21128;50.016;20.002;2023-03-01T04:57:45;100030.63;;;-3.63;92.30
34921;BME280;21128;50.016;20.002;2023-03-01T05:00:13;100037.49;;;-3.63;92.05
34921;BME280;21128;50.016;20.002;2023-03-01T05:02:54;100039.25;;;-3.65;92.67
34921;BME280;21128;50.016;20.002;2023-03-01T05:05:24;100025.58;;;-3.67;92.35
34921;BME280;21128;50.016;20.002;2023-03-01T05:07:56;100029.91;;;-3.70;93.07
34921;BME280;21128;50.016;20.002;2023-03-01T05:10:25;100025.58;;;-3.67;92.95
34921;BME280;21128;50.016;20.002;2023-03-01T05:12:53;100023.89;;;-3.69;93.05
34921;BME280;21128;50.016;20.002;2023-03-01T05:15:20;100021.32;;;-3.70;93.58
34921;BME280;21128;50.016;20.002;2023-03-01T05:17:53;100022.23;;;-3.73;92.68
34921;BME280;21128;50.016;20.002;2023-03-01T05:20:21;100020.53;;;-3.74;92.51
34921;BME280;21128;50.016;20.002;2023-03-01T05:22:50;100017.97;;;-3.74;93.05
34921;BME280;21128;50.016;20.002;2023-03-01T05:25:18;100018.84;;;-3.75;94.08
34921;BME280;21128;50.016;20.002;2023-03-01T05:27:45;100020.56;;;-3.75;94.62
34921;BME280;21128;50.016;20.002;2023-03-01T05:30:12;100017.97;;;-3.74;95.00
34921;BME280;21128;50.016;20.002;2023-03-01T05:32:46;100011.89;;;-3.68;94.46
34921;BME280;21128;50.016;20.002;2023-03-01T05:35:15;100012.71;;;-3.66;95.26
34921;BME280;21128;50.016;20.002;2023-03-01T05:37:44;100028.16;;;-3.67;93.80
34921;BME280;21128;50.016;20.002;2023-03-01T05:40:13;100024.77;;;-3.71;94.47
34921;BME280;21128;50.016;20.002;2023-03-01T05:42:53;100034.20;;;-3.72;95.01
34921;BME280;21128;50.016;20.002;2023-03-01T05:45:22;100037.61;;;-3.70;95.17
34921;BME280;21128;50.016;20.002;2023-03-01T05:47:50;100043.59;;;-3.69;94.29
34921;BME280;21128;50.016;20.002;2023-03-01T05:50:20;100050.45;;;-3.70;94.54
34921;BME280;21128;50.016;20.002;2023-03-01T05:52:54;100042.75;;;-3.70;94.97
34921;BME280;21128;50.016;20.002;2023-03-01T05:55:23;100038.46;;;-3.69;94.38
34921;BME280;21128;50.016;20.002;2023-03-01T05:57:50;100043.53;;;-3.66;94.89
34921;BME280;21128;50.016;20.002;2023-03-01T06:00:20;100046.95;;;-3.65;94.88
34921;BME280;21128;50.016;20.002;2023-03-01T06:02:50;100046.08;;;-3.64;94.96
34921;BME280;21128;50.016;20.002;2023-03-01T06:05:18;100034.11;;;-3.65;95.12
34921;BME280;21128;50.016;20.002;2023-03-01T06:07:45;100041.73;;;-3.59;95.92
34921;BME280;21128;50.016;20.002;2023-03-01T06:10:13;100040.78;;;-3.55;95.93
34921;BME280;21128;50.016;20.002;2023-03-01T06:12:42;100039.82;;;-3.48;95.24
34921;BME280;21128;50.016;20.002;2023-03-01T06:15:15;100038.75;;;-3.35;95.33
34921;BME280;21128;50.016;20.002;2023-03-01T06:17:44;100029.12;;;-3.24;95.13
34921;BME280;21128;50.016;20.002;2023-03-01T06:20:16;100034.91;;;-3.13;95.35
34921;BME280;21128;50.016;20.002;2023-03-01T06:22:44;100035.59;;;-3.01;96.06
34921;BME280;21128;50.016;20.002;2023-03-01T06:25:14;100031.86;;;-2.87;96.24
34921;BME280;21128;50.016;20.002;2023-03-01T06:27:41;100044.54;;;-2.76;95.76
34921;BME280;21128;50.016;20.002;2023-03-01T06:30:10;100034.88;;;-2.65;95.51
34921;BME280;21128;50.016;20.002;2023-03-01T06:32:38;100043.22;;;-2.52;95.66
34921;BME280;21128;50.016;20.002;2023-03-01T06:35:13;100050.75;;;-2.43;95.51
34921;BME280;21128;50.016;20.002;2023-03-01T06:37:41;100043.71;;;-2.35;94.73
34921;BME280;21128;50.016;20.002;2023-03-01T06:40:09;100040.14;;;-2.29;94.60
34921;BME280;21128;50.016;20.002;2023-03-01T06:42:40;100042.67;;;-2.26;93.99
34921;BME280;21128;50.016;20.002;2023-03-01T06:45:08;100040.78;;;-2.18;94.15
34921;BME280;21128;50.016;20.002;2023-03-01T06:47:36;100046.57;;;-2.08;93.73
34921;BME280;21128;50.016;20.002;2023-03-01T06:50:03;100040.28;;;-1.96;94.33
34921;BME280;21128;50.016;20.002;2023-03-01T06:52:30;100038.30;;;-1.85;93.84
34921;BME280;21128;50.016;20.002;2023-03-01T06:54:58;100039.69;;;-1.71;93.61
34921;BME280;21128;50.016;20.002;2023-03-01T06:57:25;100041.95;;;-1.57;93.25
34921;BME280;21128;50.016;20.002;2023-03-01T06:59:52;100047.63;;;-1.43;93.91
34921;BME280;21128;50.016;20.002;2023-03-01T07:02:19;100037.75;;;-1.27;92.56
34921;BME280;21128;50.016;20.002;2023-03-01T07:04:49;100038.25;;;-1.12;92.90
34921;BME280;21128;50.016;20.002;2023-03-01T07:07:17;100030.16;;;-0.99;92.61
34921;BME280;21128;50.016;20.002;2023-03-01T07:09:45;100027.97;;;-0.81;91.49
34921;BME280;21128;50.016;20.002;2023-03-01T07:12:12;100028.52;;;-0.70;91.84
34921;BME280;21128;50.016;20.002;2023-03-01T07:14:39;100019.55;;;-0.57;91.17
34921;BME280;21128;50.016;20.002;2023-03-01T07:17:07;100019.98;;;-0.43;91.24
34921;BME280;21128;50.016;20.002;2023-03-01T07:19:34;100015.54;;;-0.38;89.91
34921;BME280;21128;50.016;20.002;2023-03-01T07:22:01;100006.84;;;-0.35;89.69
34921;BME280;21128;50.016;20.002;2023-03-01T07:24:31;99997.19;;;-0.29;89.42
34921;BME280;21128;50.016;20.002;2023-03-01T07:26:58;99994.20;;;-0.15;89.32
34921;BME280;21128;50.016;20.002;2023-03-01T07:29:25;99990.38;;;-0.03;87.94
34921;BME280;21128;50.016;20.002;2023-03-01T07:31:52;99976.38;;;0.04;88.77
34921;BME280;21128;50.016;20.002;2023-03-01T07:34:19;99971.86;;;0.37;89.71
34921;BME280;21128;50.016;20.002;2023-03-01T07:36:46;99969.77;;;0.73;88.57
34921;BME280;21128;50.016;20.002;2023-03-01T07:39:14;99969.94;;;0.94;86.18
34921;BME280;21128;50.016;20.002;2023-03-01T07:41:41;99975.45;;;1.08;87.22
34921;BME280;21128;50.016;20.002;2023-03-01T07:44:08;99980.31;;;1.40;86.89
34921;BME280;21128;50.016;20.002;2023-03-01T07:46:36;99980.72;;;1.75;86.70
34921;BME280;21128;50.016;20.002;2023-03-01T07:49:03;99984.66;;;2.07;85.58
34921;BME280;21128;50.016;20.002;2023-03-01T07:51:31;99989.95;;;2.26;83.57
34921;BME280;21128;50.016;20.002;2023-03-01T07:53:58;99987.19;;;2.31;81.97
34921;BME280;21128;50.016;20.002;2023-03-01T07:56:25;99998.02;;;2.40;82.25
34921;BME280;21128;50.016;20.002;2023-03-01T07:58:52;99998.38;;;2.53;81.07
34921;BME280;21128;50.016;20.002;2023-03-01T08:01:20;100004.94;;;2.62;79.67
34921;BME280;21128;50.016;20.002;2023-03-01T08:03:48;99998.06;;;2.61;79.48
34921;BME280;21128;50.016;20.002;2023-03-01T08:06:16;99998.31;;;2.75;79.49
34921;BME280;21128;50.016;20.002;2023-03-01T08:08:44;99996.83;;;2.90;79.15
34921;BME280;21128;50.016;20.002;2023-03-01T08:11:13;99996.61;;;3.15;79.12
34921;BME280;21128;50.016;20.002;2023-03-01T08:13:42;99989.83;;;3.31;77.80
34921;BME280;21128;50.016;20.002;2023-03-01T08:16:12;99995.38;;;3.42;78.10
34921;BME280;21128;50.016;20.002;2023-03-01T08:18:40;99992.39;;;3.70;77.08
34921;BME280;21128;50.016;20.002;2023-03-01T08:21:16;99988.08;;;3.69;74.70
34921;BME280;21128;50.016;20.002;2023-03-01T08:23:44;99976.98;;;3.84;76.42
34921;BME280;21128;50.016;20.002;2023-03-01T08:26:15;99988.17;;;4.22;76.06
34921;BME280;21128;50.016;20.002;2023-03-01T08:28:43;99980.85;;;4.65;75.37
34921;BME280;21128;50.016;20.002;2023-03-01T08:31:19;99975.78;;;4.97;74.83
34921;BME280;21128;50.016;20.002;2023-03-01T08:33:47;99967.80;;;5.33;73.88
34921;BME280;21128;50.016;20.002;2023-03-01T08:36:23;99973.70;;;5.52;71.35
34921;BME280;21128;50.016;20.002;2023-03-01T08:38:51;99963.04;;;5.57;71.00
34921;BME280;21128;50.016;20.002;2023-03-01T08:41:19;99965.89;;;5.68;70.73
34921;BME280;21128;50.016;20.002;2023-03-01T08:43:46;99966.92;;;5.81;68.62
34921;BME280;21128;50.016;20.002;2023-03-01T08:46:13;99959.66;;;5.86;68.65
34921;BME280;21128;50.016;20.002;2023-03-01T08:48:41;99961.13;;;5.92;68.43
34921;BME280;21128;50.016;20.002;2023-03-01T08:51:16;99954.39;;;5.72;66.49
34921;BME280;21128;50.016;20.002;2023-03-01T08:53:44;99962.20;;;5.56;66.69
34921;BME280;21128;50.016;20.002;2023-03-01T08:56:12;99951.59;;;5.59;66.04
34921;BME280;21128;50.016;20.002;2023-03-01T08:58:39;99959.75;;;5.69;66.48
34921;BME280;21128;50.016;20.002;2023-03-01T09:01:09;99962.20;;;5.72;65.32
34921;BME280;21128;50.016;20.002;2023-03-01T09:03:36;99963.29;;;5.84;65.98
34921;BME280;21128;50.016;20.002;2023-03-01T09:06:05;99966.99;;;6.11;65.64
34921;BME280;21128;50.016;20.002;2023-03-01T09:08:35;99967.81;;;6.28;65.01
34921;BME280;21128;50.016;20.002;2023-03-01T09:11:04;99974.37;;;6.35;62.94
34921;BME280;21128;50.016;20.002;2023-03-01T09:13:33;99963.09;;;6.34;63.28
34921;BME280;21128;50.016;20.002;2023-03-01T09:16:02;99958.27;;;6.42;62.80
34921;BME280;21128;50.016;20.002;2023-03-01T09:18:29;99956.98;;;6.49;61.75
34921;BME280;21128;50.016;20.002;2023-03-01T09:21:09;99957.39;;;6.72;61.06
34921;BME280;21128;50.016;20.002;2023-03-01T09:23:39;99960.78;;;6.74;61.19
34921;BME280;21128;50.016;20.002;2023-03-01T09:26:13;99949.41;;;7.03;61.39
34921;BME280;21128;50.016;20.002;2023-03-01T09:28:40;99959.86;;;7.46;61.71
34921;BME280;21128;50.016;20.002;2023-03-01T09:31:13;99959.98;;;7.86;61.59
34921;BME280;21128;50.016;20.002;2023-03-01T09:33:42;99953.39;;;8.07;59.21
34921;BME280;21128;50.016;20.002;2023-03-01T09:36:18;99962.60;;;8.13;58.43
34921;BME280;21128;50.016;20.002;2023-03-01T09:38:45;99953.55;;;8.31;58.92
34921;BME280;21128;50.016;20.002;2023-03-01T09:41:49;99953.02;;;8.66;59.05
34921;BME280;21128;50.016;20.002;2023-03-01T09:47:20;99945.70;;;9.22;57.36
34921;BME280;21128;50.016;20.002;2023-03-01T09:50:19;99956.57;;;9.54;56.36
34921;BME280;21128;50.016;20.002;2023-03-01T09:53:06;99954.06;;;9.52;54.43
34921;BME280;21128;50.016;20.002;2023-03-01T09:55:44;99951.67;;;9.24;53.64
34921;BME280;21128;50.016;20.002;2023-03-01T10:06:36;99943.76;;;8.35;52.07
34921;BME280;21128;50.016;20.002;2023-03-01T10:09:14;99947.98;;;8.50;53.60
34921;BME280;21128;50.016;20.002;2023-03-01T10:11:46;99943.92;;;8.71;52.31
34921;BME280;21128;50.016;20.002;2023-03-01T10:14:50;99946.86;;;8.80;51.85
34921;BME280;21128;50.016;20.002;2023-03-01T10:17:41;99944.64;;;9.24;52.80
34921;BME280;21128;50.016;20.002;2023-03-01T10:23:08;99943.16;;;9.33;48.52
34921;BME280;21128;50.016;20.002;2023-03-01T10:25:47;99935.13;;;8.85;49.93
34921;BME280;21128;50.016;20.002;2023-03-01T10:28:50;99931.77;;;8.70;49.48
34921;BME280;21128;50.016;20.002;2023-03-01T10:31:39;99929.78;;;8.87;49.41
34921;BME280;21128;50.016;20.002;2023-03-01T10:34:18;99923.36;;;8.65;47.59
34921;BME280;21128;50.016;20.002;2023-03-01T10:36:51;99921.69;;;8.64;50.34
34921;BME280;21128;50.016;20.002;2023-03-01T10:39:23;99924.31;;;8.64;48.91
34921;BME280;21128;50.016;20.002;2023-03-01T10:42:06;99919.06;;;8.64;50.16
34921;BME280;21128;50.016;20.002;2023-03-01T10:44:48;99920.95;;;8.62;48.72
34921;BME280;21128;50.016;20.002;2023-03-01T10:47:17;99923.28;;;8.67;49.75
34921;BME280;21128;50.016;20.002;2023-03-01T10:49:58;99920.84;;;9.15;50.14
34921;BME280;21128;50.016;20.002;2023-03-01T10:52:36;99917.34;;;9.40;47.87
34921;BME280;21128;50.016;20.002;2023-03-01T10:57:40;99916.58;;;9.87;48.80
34921;BME280;21128;50.016;20.002;2023-03-01T11:00:32;99907.81;;;10.23;48.54
34921;BME280;21128;50.016;20.002;2023-03-01T11:05:26;99908.47;;;10.14;47.94
34921;BME280;21128;50.016;20.002;2023-03-01T11:07:58;99900.20;;;10.31;47.27
34921;BME280;21128;50.016;20.002;2023-03-01T11:10:28;99899.06;;;10.47;47.28
34921;BME280;21128;50.016;20.002;2023-03-01T11:13:17;99896.13;;;10.74;48.47
34921;BME280;21128;50.016;20.002;2023-03-01T11:16:10;99894.13;;;11.22;48.19
34921;BME280;21128;50.016;20.002;2023-03-01T11:18:38;99883.77;;;11.64;48.73
34921;BME280;21128;50.016;20.002;2023-03-01T11:21:07;99881.13;;;11.86;47.74
34921;BME280;21128;50.016;20.002;2023-03-01T11:23:37;99887.30;;;11.96;48.30
34921;BME280;21128;50.016;20.002;2023-03-01T11:26:08;99884.67;;;11.96;46.64
34921;BME280;21128;50.016;20.002;2023-03-01T11:28:37;99885.38;;;11.44;45.96
34921;BME280;21128;50.016;20.002;2023-03-01T11:31:08;99891.34;;;11.35;45.92
34921;BME280;21128;50.016;20.002;2023-03-01T11:33:48;99876.84;;;11.51;46.75
34921;BME280;21128;50.016;20.002;2023-03-01T11:36:51;99874.43;;;11.71;46.39
34921;BME280;21128;50.016;20.002;2023-03-01T11:39:41;99883.50;;;11.89;46.39
34921;BME280;21128;50.016;20.002;2023-03-01T11:45:13;99877.88;;;11.82;44.31
34921;BME280;21128;50.016;20.002;2023-03-01T11:47:50;99868.95;;;11.63;44.96
34921;BME280;21128;50.016;20.002;2023-03-01T11:50:47;99861.49;;;11.68;44.84
34921;BME280;21128;50.016;20.002;2023-03-01T11:56:42;99865.16;;;11.44;42.50
34921;BME280;21128;50.016;20.002;2023-03-01T11:59:33;99859.19;;;10.75;43.22
34921;BME280;21128;50.016;20.002;2023-03-01T12:10:42;99842.94;;;11.15;44.67
34921;BME280;21128;50.016;20.002;2023-03-01T12:41:06;99813.58;;;7.57;44.74
34921;BME280;21128;50.016;20.002;2023-03-01T12:49:16;99814.38;;;6.47;45.95
34921;BME280;21128;50.016;20.002;2023-03-01T12:51:54;99803.37;;;6.28;47.05
34921;BME280;21128;50.016;20.002;2023-03-01T12:54:27;99796.83;;;6.20;47.74
34921;BME280;21128;50.016;20.002;2023-03-01T12:56:57;99806.14;;;6.10;47.53
34921;BME280;21128;50.016;20.002;2023-03-01T12:59:34;99806.77;;;6.00;47.64
34921;BME280;21128;50.016;20.002;2023-03-01T13:02:33;99805.84;;;6.01;48.27
34921;BME280;21128;50.016;20.002;2023-03-01T13:08:05;99810.61;;;6.08;48.25
34921;BME280;21128;50.016;20.002;2023-03-01T13:11:16;99801.72;;;5.97;48.27
34921;BME280;21128;50.016;20.002;2023-03-01T13:13:44;99792.07;;;5.83;47.94
34921;BME280;21128;50.016;20.002;2023-03-01T13:19:14;99798.91;;;5.70;48.64
34921;BME280;21128;50.016;20.002;2023-03-01T13:21:44;99802.63;;;5.65;48.29
34921;BME280;21128;50.016;20.002;2023-03-01T13:29:57;99794.38;;;5.73;48.28
34921;BME280;21128;50.016;20.002;2023-03-01T13:32:33;99793.75;;;5.84;48.18
34921;BME280;21128;50.016;20.002;2023-03-01T13:35:03;99794.39;;;5.87;47.80
34921;BME280;21128;50.016;20.002;2023-03-01T13:37:45;99795.33;;;5.86;48.51
34921;BME280;21128;50.016;20.002;2023-03-01T13:42:49;99787.78;;;5.82;47.37
34921;BME280;21128;50.016;20.002;2023-03-01T13:45:24;99788.53;;;5.84;48.16
34921;BME280;21128;50.016;20.002;2023-03-01T13:47:58;99789.55;;;5.81;47.80
34921;BME280;21128;50.016;20.002;2023-03-01T13:50:29;99772.97;;;5.82;47.36
34921;BME280;21128;50.016;20.002;2023-03-01T13:53:00;99768.30;;;5.73;47.34
34921;BME280;21128;50.016;20.002;2023-03-01T13:55:40;99760.91;;;5.65;47.24
34921;BME280;21128;50.016;20.002;2023-03-01T13:58:20;99765.38;;;5.63;46.68
34921;BME280;21128;50.016;20.002;2023-03-01T14:01:04;99761.66;;;5.68;47.32
34921;BME280;21128;50.016;20.002;2023-03-01T14:03:39;99760.53;;;5.72;47.17
34921;BME280;21128;50.016;20.002;2023-03-01T14:06:16;99756.00;;;5.75;47.51
34921;BME280;21128;50.016;20.002;2023-03-01T14:08:49;99758.12;;;5.69;47.30
34921;BME280;21128;50.016;20.002;2023-03-01T14:11:43;99748.41;;;5.56;47.01
34921;BME280;21128;50.016;20.002;2023-03-01T14:14:32;99753.47;;;5.44;47.29
34921;BME280;21128;50.016;20.002;2023-03-01T14:19:48;99752.31;;;5.33;47.68
34921;BME280;21128;50.016;20.002;2023-03-01T14:22:24;99745.58;;;5.29;47.56
34921;BME280;21128;50.016;20.002;2023-03-01T14:25:06;99745.43;;;5.32;47.29
34921;BME280;21128;50.016;20.002;2023-03-01T14:27:43;99741.05;;;5.33;47.48
34921;BME280;21128;50.016;20.002;2023-03-01T14:30:35;99741.89;;;5.33;47.15
34921;BME280;21128;50.016;20.002;2023-03-01T14:33:02;99738.64;;;5.30;47.51
34921;BME280;21128;50.016;20.002;2023-03-01T14:35:33;99748.03;;;5.32;47.61
34921;BME280;21128;50.016;20.002;2023-03-01T14:38:00;99746.36;;;5.31;48.09
34921;BME280;21128;50.016;20.002;2023-03-01T14:42:58;99751.05;;;5.41;47.71
34921;BME280;21128;50.016;20.002;2023-03-01T14:45:28;99744.22;;;5.38;47.84